Latest Weather Observations for Campania

IDT60801

Issued at 9:32 pm EST Wednesday 27 July 2016 (issued every 30 minutes, with the page automatically refreshed every 10 minutes)

About weather observations | Map of weather stations | Latest weather observations for TAS | Other Formats
Station Details ID: 094212 Name: CAMPANIA (KINCORA) Lat: -42.69 Lon: 147.43 Height: 45.0 m
Data from the previous 72 hours. | See also: Recent months at Campania
Date/Time
EST
Temp
°C
App
Temp
°C
Dew
Point
°C
Rel
Hum
%
Delta-T
°C
Wind Press
QNH
hPa
Press
MSL
hPa
Rain since
9am
mm
Dir  Spd
km/h
Gust
km/h
Spd
kts
Gust
kts
27/09:30pm 11.0 2.0 2.3 55 3.7 W 39 59 21 32 - - 0.4
27/09:19pm 11.1 3.4 2.4 55 3.7 W 32 74 17 40 - - 0.4
27/09:15pm 10.7 3.0 2.5 57 3.5 W 32 54 17 29 - - 0.4
27/09:02pm 10.9 -1.4 2.2 55 3.7 WSW 56 74 30 40 - - 0.4
27/09:00pm 10.8 -1.6 2.6 57 3.5 W 57 74 31 40 - - 0.4
27/08:59pm 11.0 -1.3 2.3 55 3.7 W 56 74 30 40 - - 0.4
27/08:58pm 11.1 -1.7 2.2 54 3.8 W 59 74 32 40 - - 0.4
27/08:57pm 11.0 2.3 2.1 54 3.8 W 37 70 20 38 - - 0.4
27/08:50pm 10.9 3.9 2.2 55 3.7 W 28 48 15 26 - - 0.4
27/08:30pm 9.9 5.4 4.1 67 2.6 W 17 24 9 13 - - 0.4
27/08:00pm 9.7 4.7 4.7 71 2.2 W 20 35 11 19 - - 0.2
27/07:30pm 9.3 3.5 4.5 72 2.1 NW 24 37 13 20 - - 0.2
27/07:00pm 8.7 2.0 3.5 70 2.2 NW 28 41 15 22 - - 0.0
27/06:30pm 8.6 1.8 3.2 69 2.3 WNW 28 50 15 27 - - 0.0
27/06:15pm 8.6 1.8 3.2 69 2.3 NW 28 54 15 29 - - 0.0
27/06:00pm 8.6 2.4 2.4 65 2.6 NW 24 35 13 19 - - 0.0
27/05:30pm 8.3 -0.4 1.9 64 2.6 WNW 37 57 20 31 - - 0.0
27/05:01pm 8.1 0.6 1.5 63 2.7 WNW 30 48 16 26 - - 0.0
27/05:00pm 8.2 0.7 1.4 62 2.8 WNW 30 46 16 25 - - 0.0
27/04:30pm 8.7 1.2 1.1 59 3.1 NW 30 48 16 26 - - 0.0
27/04:04pm 8.6 -0.6 1.1 59 3.1 NW 39 57 21 31 - - 0.0
27/04:00pm 8.8 -1.3 0.5 56 3.3 NW 43 57 23 31 - - 0.0
27/03:39pm 9.3 2.1 0.7 55 3.5 NNW 28 52 15 28 - - 0.0
27/03:30pm 9.6 3.2 1.0 55 3.5 NNW 24 37 13 20 - - 0.0
27/03:00pm 9.4 3.7 0.8 55 3.5 WNW 20 35 11 19 - - 0.0
27/02:30pm 9.2 2.9 1.4 58 3.2 NW 24 33 13 18 - - 0.0
27/02:00pm 9.0 2.1 0.2 54 3.5 NW 26 39 14 21 - - 0.0
27/01:47pm 9.1 1.8 0.3 54 3.5 NW 28 41 15 22 - - 0.0
27/01:30pm 9.2 4.4 0.4 54 3.5 NW 15 20 8 11 - - 0.0
27/01:00pm 9.0 1.7 0.2 54 3.5 W 28 46 15 25 - - 0.0
27/12:51pm 9.0 1.7 -0.1 53 3.6 W 28 46 15 25 - - 0.0
27/12:30pm 8.9 0.8 -0.4 52 3.7 W 32 48 17 26 - - 0.0
27/12:13pm 8.8 1.5 0.0 54 3.5 WNW 28 48 15 26 - - 0.0
27/12:00pm 8.8 2.7 0.3 55 3.4 W 22 39 12 21 - - 0.0
27/11:30am 8.7 3.6 0.9 58 3.2 W 17 26 9 14 - - 0.0
27/11:00am 8.2 2.7 0.4 58 3.1 W 19 33 10 18 - - 0.0
27/10:30am 7.6 0.7 0.3 60 2.9 W 26 54 14 29 - - 0.0
27/10:00am 8.1 3.3 0.3 58 3.1 W 15 22 8 12 - - 0.0
27/09:30am 7.7 2.9 0.0 58 3.0 WNW 15 24 8 13 - - 0.0
27/09:00am 7.4 3.2 -0.8 56 3.1 NW 11 22 6 12 - - 0.4
27/08:30am 6.8 2.6 -0.9 58 2.9 NW 11 20 6 11 - - 0.4
27/08:00am 5.7 1.2 -0.4 65 2.3 WNW 13 22 7 12 - - 0.4
27/07:30am 5.4 0.9 -0.6 65 2.3 WNW 13 20 7 11 - - 0.4
27/07:00am 5.3 0.1 0.3 70 1.9 WNW 17 26 9 14 - - 0.4
27/06:30am 5.9 0.4 0.7 69 2.0 WSW 19 24 10 13 - - 0.4
27/06:00am 5.4 2.3 1.5 76 1.6 W 7 15 4 8 - - 0.4
27/05:30am 5.7 1.1 1.8 76 1.6 WSW 15 24 8 13 - - 0.4
27/05:00am 6.2 0.9 1.7 73 1.8 W 19 26 10 14 - - 0.2
27/04:30am 6.6 0.4 2.3 74 1.8 WSW 24 32 13 17 - - 0.2
27/04:00am 7.1 2.4 3.2 76 1.6 W 17 24 9 13 - - 0.2
27/03:30am 7.1 1.9 3.3 77 1.6 W 20 28 11 15 - - 0.2
27/03:00am 7.7 2.0 3.0 72 2.0 W 22 37 12 20 - - 0.2
27/02:30am 8.4 1.2 3.1 69 2.3 NW 30 54 16 29 - - 0.2
27/02:25am 8.6 1.4 3.0 68 2.4 NW 30 54 16 29 - - 0.0
27/02:00am 6.2 0.8 2.5 77 1.5 N 20 26 11 14 - - 0.0
27/01:30am 6.1 -0.8 2.7 79 1.4 N 28 37 15 20 - - 0.0
27/01:00am 6.3 -0.6 2.4 76 1.6 N 28 37 15 20 - - 0.0
27/12:30am 6.1 0.6 1.8 74 1.7 N 20 30 11 16 - - 0.0
27/12:00am 6.7 1.1 1.2 68 2.2 N 20 30 11 16 - - 0.0
 
Date/Time
EST
Temp
°C
App
Temp
°C
Dew
Point
°C
Rel
Hum
%
Delta-T
°C
Wind Press
QNH
hPa
Press
MSL
hPa
Rain since
9am
mm
Dir  Spd
km/h
Gust
km/h
Spd
kts
Gust
kts
26/11:30pm 7.3 3.4 1.0 64 2.5 NNW 11 28 6 15 - - 0.0
26/11:00pm 6.5 -0.3 1.0 68 2.2 N 26 35 14 19 - - 0.0
26/10:30pm 6.6 0.2 0.9 67 2.3 N 24 32 13 17 - - 0.0
26/10:00pm 6.6 1.5 0.7 66 2.3 N 17 24 9 13 - - 0.0
26/09:30pm 7.2 1.1 0.4 62 2.7 NNW 22 30 12 16 - - 0.0
26/09:00pm 6.1 1.3 0.0 65 2.4 NNW 15 24 8 13 - - 0.0
26/08:30pm 6.4 0.9 0.3 65 2.4 NNW 19 28 10 15 - - 0.0
26/08:00pm 6.3 0.6 0.4 66 2.3 N 20 28 11 15 - - 0.0
26/07:30pm 6.1 1.3 0.2 66 2.3 NNW 15 20 8 11 - - 0.0
26/07:00pm 6.1 1.7 0.6 68 2.2 NW 13 20 7 11 - - 0.0
26/06:30pm 6.7 2.0 0.6 65 2.4 NW 15 32 8 17 - - 0.0
26/06:00pm 7.1 1.0 0.5 63 2.6 WNW 22 32 12 17 - - 0.0
26/05:30pm 7.5 2.4 0.7 62 2.7 NW 17 35 9 19 - - 0.0
26/05:00pm 7.7 2.3 1.1 63 2.7 NW 19 26 10 14 - - 0.0
26/04:30pm 8.1 0.9 1.0 61 2.9 NW 28 43 15 23 - - 0.0
26/04:00pm 8.3 2.4 1.7 63 2.7 NW 22 35 12 19 - - 0.0
26/03:30pm 8.9 1.8 1.1 58 3.2 NW 28 43 15 23 - - 0.0
26/03:00pm 9.1 1.9 1.0 57 3.3 NW 28 43 15 23 - - 0.0
26/02:34pm 9.0 1.8 1.0 57 3.3 NNW 28 46 15 25 - - 0.0
26/02:30pm 9.2 2.9 1.4 58 3.2 NNW 24 35 13 19 - - 0.0
26/02:07pm 9.1 1.6 1.5 59 3.1 NW 30 48 16 26 - - 0.0
26/02:00pm 9.0 1.1 1.2 58 3.2 NW 32 48 17 26 - - 0.0
26/01:55pm 9.2 2.0 0.6 55 3.5 NW 28 48 15 26 - - 0.0
26/01:30pm 9.1 2.4 1.3 58 3.2 NNW 26 37 14 20 - - 0.0
26/01:00pm 9.0 3.0 1.0 57 3.3 NW 22 35 12 19 - - 0.0
26/12:30pm 9.4 4.1 1.8 59 3.2 WNW 19 33 10 18 - - 0.0
26/12:05pm 8.8 1.7 1.5 60 3.0 NW 28 46 15 25 - - 0.0
26/12:00pm 8.9 1.4 1.3 59 3.1 WNW 30 44 16 24 - - 0.0
26/11:45am 9.0 2.0 1.9 61 3.0 WNW 28 50 15 27 - - 0.0
26/11:30am 9.0 3.1 1.7 60 3.0 WNW 22 37 12 20 - - 0.0
26/11:00am 8.1 2.2 1.5 63 2.7 WNW 22 43 12 23 - - 0.0
26/10:30am 7.8 1.1 1.2 63 2.7 WNW 26 41 14 22 - - 0.0
26/10:00am 7.2 1.2 1.3 66 2.4 NW 22 37 12 20 - - 0.0
26/09:30am 6.6 1.2 1.1 68 2.2 NNW 19 28 10 15 - - 0.0
26/09:00am 6.2 -0.2 0.7 68 2.2 NNW 24 35 13 19 - - 4.0
26/08:30am 6.0 -0.1 0.3 67 2.2 NNW 22 41 12 22 - - 4.0
26/08:00am 4.6 -0.1 0.7 76 1.5 NW 15 28 8 15 - - 4.0
26/07:30am 4.1 -2.3 1.0 80 1.2 NW 24 39 13 21 - - 4.0
26/07:00am 3.4 -2.2 1.1 85 0.9 WNW 20 35 11 19 - - 3.8
26/06:30am 4.4 -0.2 1.4 81 1.2 WNW 15 20 8 11 - - 2.0
26/06:00am 4.6 -1.7 1.3 79 1.3 NW 24 44 13 24 - - 1.4
26/05:30am 4.9 0.2 0.7 74 1.6 WNW 15 22 8 12 - - 1.0
26/05:00am 4.9 -0.5 1.0 76 1.5 NNW 19 30 10 16 - - 0.8
26/04:30am 5.1 -2.1 0.7 73 1.7 WNW 28 39 15 21 - - 0.8
26/04:00am 5.4 0.0 1.1 74 1.7 NW 19 35 10 19 - - 0.8
26/03:30am 5.7 0.3 1.1 72 1.8 NW 19 32 10 17 - - 0.4
26/03:00am 5.0 -0.1 0.8 74 1.6 NW 17 30 9 16 - - 0.4
26/02:46am 5.8 -1.4 1.0 71 1.9 NW 28 57 15 31 - - 0.4
26/02:30am 5.7 0.0 0.3 68 2.1 NW 20 35 11 19 - - 0.4
26/02:00am 5.4 0.0 1.0 73 1.7 WNW 19 28 10 15 - - 0.4
26/01:30am 5.1 -1.7 1.0 75 1.6 WNW 26 43 14 23 - - 0.4
26/01:00am 6.0 -2.1 1.0 70 2.0 WNW 33 52 18 28 - - 0.0
26/12:30am 5.8 -1.7 1.5 74 1.7 WNW 30 50 16 27 - - 0.0
26/12:19am 6.0 -2.4 1.5 73 1.8 WNW 35 57 19 31 - - 0.0
26/12:00am 6.5 -1.6 1.2 69 2.1 WNW 33 46 18 25 - - 0.0
 
Date/Time
EST
Temp
°C
App
Temp
°C
Dew
Point
°C
Rel
Hum
%
Delta-T
°C
Wind Press
QNH
hPa
Press
MSL
hPa
Rain since
9am
mm
Dir  Spd
km/h
Gust
km/h
Spd
kts
Gust
kts
25/11:30pm 6.6 -1.3 1.1 68 2.2 WNW 32 50 17 27 - - 0.0
25/11:27pm 7.0 -0.5 1.1 66 2.4 WNW 30 50 16 27 - - 0.0
25/11:00pm 7.2 1.2 1.1 65 2.4 NW 22 35 12 19 - - 0.0
25/10:30pm 7.6 1.4 1.9 67 2.3 NW 24 32 13 17 - - 0.0
25/10:00pm 8.0 1.4 2.0 66 2.5 WNW 26 50 14 27 - - 0.0
25/09:30pm 9.1 0.1 2.7 64 2.7 NW 39 67 21 36 - - 0.0
25/09:17pm 9.4 2.1 2.7 63 2.9 NNW 30 61 16 33 - - 0.0
25/09:00pm 8.8 0.7 3.0 67 2.5 N 35 50 19 27 - - 0.0
25/08:40pm 8.7 1.2 3.5 70 2.2 N 32 50 17 27 - - 0.0
25/08:30pm 8.7 0.4 4.1 73 2.0 N 37 50 20 27 - - 0.0
25/08:01pm 9.4 1.5 4.4 71 2.2 N 35 57 19 31 - - 0.0
25/08:00pm 9.4 1.9 4.6 72 2.1 N 33 50 18 27 - - 0.0
25/07:39pm 9.6 3.0 4.4 70 2.3 N 28 52 15 28 - - 0.0
25/07:30pm 9.2 3.8 4.4 72 2.1 N 22 33 12 18 - - 0.0
25/07:00pm 9.3 2.8 4.5 72 2.1 N 28 46 15 25 - - 0.0
25/06:52pm 9.4 2.8 4.4 71 2.2 N 28 46 15 25 - - 0.0
25/06:30pm 9.1 2.9 4.3 72 2.1 N 26 35 14 19 - - 0.0
25/06:00pm 9.3 5.7 4.9 74 2.0 N 13 26 7 14 - - 0.0
25/05:30pm 7.7 4.7 4.3 79 1.5 N 9 13 5 7 - - 0.0
25/05:00pm 8.5 5.8 3.9 73 2.0 NW 7 11 4 6 - - 0.0
25/04:30pm 10.9 8.6 5.0 67 2.7 N 6 11 3 6 - - 0.0
25/04:00pm 11.1 8.7 5.2 67 2.7 NNW 7 9 4 5 - - 0.0
25/03:30pm 11.5 7.8 4.5 62 3.2 NW 13 19 7 10 - - 0.0
25/03:00pm 11.9 8.2 4.4 60 3.4 WNW 13 19 7 10 - - 0.0
25/02:30pm 12.9 9.9 5.8 62 3.3 WNW 11 17 6 9 - - 0.0
25/02:00pm 11.6 6.1 4.1 60 3.4 NW 22 28 12 15 - - 0.0
25/01:30pm 12.1 8.6 5.3 63 3.1 WNW 13 20 7 11 - - 0.0
25/01:00pm 11.4 7.4 4.8 64 3.0 WNW 15 20 8 11 - - 0.0
25/12:30pm 12.3 8.2 4.5 59 3.6 NW 15 24 8 13 - - 0.0
25/12:00pm 11.2 7.1 4.4 63 3.1 NW 15 24 8 13 - - 0.0
25/11:30am 12.4 9.0 5.8 64 3.1 NW 13 20 7 11 - - 0.0
25/11:00am 10.6 8.1 4.9 68 2.6 N 7 9 4 5 - - 0.0
25/10:30am 9.2 6.6 4.4 72 2.1 NW 7 11 4 6 - - 0.0
25/10:00am 7.7 5.2 4.7 81 1.3 NNW 7 11 4 6 - - 0.0
25/09:30am 4.9 2.2 3.6 91 0.5 NNW 7 11 4 6 - - 0.0
25/09:00am 3.1 0.2 1.6 90 0.6 NW 6 7 3 4 - - 0.0
25/08:30am 3.1 0.2 1.5 89 0.6 N 6 7 3 4 - - 0.0
25/08:00am 2.2 -1.0 0.7 90 0.6 NNW 7 9 4 5 - - 0.0
25/07:30am 1.6 -1.7 -0.2 88 0.7 NNW 7 11 4 6 - - 0.0
25/07:00am 3.1 -0.1 0.8 85 0.9 NNW 7 9 4 5 - - 0.0
25/06:30am 3.7 -0.1 1.7 87 0.8 N 11 13 6 7 - - 0.0
25/06:00am 2.0 -2.1 0.1 87 0.7 NNW 11 13 6 7 - - 0.0
25/05:30am 3.3 -0.6 0.9 84 0.9 N 11 15 6 8 - - 0.0
25/05:00am 4.9 1.7 2.8 86 0.9 N 9 13 5 7 - - 0.0
25/04:30am 4.2 0.5 2.2 87 0.8 NNE 11 15 6 8 - - 0.0
25/04:00am 5.1 1.8 2.3 82 1.1 N 9 11 5 6 - - 0.0
25/03:30am 6.0 0.4 3.2 82 1.2 N 22 28 12 15 - - 0.0
25/03:00am 5.1 1.9 2.8 85 0.9 NW 9 19 5 10 - - 0.0
25/02:30am 3.7 0.6 1.4 85 0.9 N 7 11 4 6 - - 0.0
25/02:00am 3.2 -0.3 1.3 87 0.7 NW 9 13 5 7 - - 0.0
25/01:30am 3.3 -0.6 1.2 86 0.8 NNW 11 15 6 8 - - 0.0
25/01:00am 3.6 0.2 2.0 89 0.6 NW 9 13 5 7 - - 0.0
25/12:30am 2.1 -0.9 0.5 89 0.6 W 6 7 3 4 - - 0.0
25/12:00am 2.8 1.0 1.0 88 0.7 CALM 0 0 0 0 - - 0.0
 
Date/Time
EST
Temp
°C
App
Temp
°C
Dew
Point
°C
Rel
Hum
%
Delta-T
°C
Wind Press
QNH
hPa
Press
MSL
hPa
Rain since
9am
mm
Dir  Spd
km/h
Gust
km/h
Spd
kts
Gust
kts
24/11:30pm 3.0 -0.5 1.1 87 0.7 N 9 11 5 6 - - 0.0
24/11:00pm 2.3 -0.4 0.4 87 0.7 N 4 6 2 3 - - 0.0
24/10:30pm 3.4 1.3 1.4 87 0.8 SW 2 7 1 4 - - 0.0
24/10:00pm 3.7 1.2 1.7 87 0.8 NNE 4 6 2 3 - - 0.0

Other Formats:

Comma delimited format used in spreadsheet applications
http://www.bom.gov.au/fwo/IDT60801/IDT60801.95972.axf

JavaScript Object Notation format (JSON) in row-major order
http://www.bom.gov.au/fwo/IDT60801/IDT60801.95972.json